TimeMDT,TemperatureF,Dew PointF,Humidity,Sea Level PressureIn,VisibilityMPH,Wind Direction,Wind SpeedMPH,Gust SpeedMPH,PrecipitationIn,Events,Conditions,WindDirDegrees,DateUTC
12:16 AM,55.4,48.2,77,29.93,10.0,ESE,8.1,-,N/A,,Clear,110,2013-05-17 06:16:00
12:36 AM,55.4,48.2,77,29.93,10.0,SE,10.4,-,N/A,,Scattered Clouds,140,2013-05-17 06:36:00
12:56 AM,59.0,46.4,63,29.93,10.0,SSE,12.7,-,N/A,,Scattered Clouds,150,2013-05-17 06:56:00
1:16 AM,59.0,48.2,67,29.93,10.0,SE,11.5,-,N/A,,Scattered Clouds,140,2013-05-17 07:16:00
1:36 AM,59.0,50.0,72,29.93,10.0,SE,11.5,-,N/A,,Clear,140,2013-05-17 07:36:00
1:56 AM,57.2,50.0,77,29.93,10.0,South,5.8,-,N/A,,Clear,190,2013-05-17 07:56:00
2:15 AM,55.4,50.0,82,29.93,10.0,SW,5.8,-,N/A,,Clear,220,2013-05-17 08:15:00
2:35 AM,55.4,50.0,82,29.93,10.0,SW,8.1,-,N/A,,Clear,220,2013-05-17 08:35:00
2:55 AM,57.2,48.2,72,29.93,10.0,SSW,9.2,-,N/A,,Clear,200,2013-05-17 08:55:00
3:16 AM,55.4,48.2,77,29.92,10.0,South,4.6,-,N/A,,Clear,170,2013-05-17 09:16:00
3:36 AM,53.6,48.2,82,29.92,10.0,SSE,8.1,-,N/A,,Clear,160,2013-05-17 09:36:00
3:56 AM,53.6,48.2,82,29.92,10.0,SSW,9.2,-,N/A,,Clear,200,2013-05-17 09:56:00
4:16 AM,55.4,48.2,77,29.91,10.0,SSW,11.5,-,N/A,,Clear,200,2013-05-17 10:16:00
4:36 AM,57.2,48.2,72,29.91,10.0,SSW,11.5,-,N/A,,Clear,200,2013-05-17 10:36:00
4:56 AM,57.2,48.2,72,29.91,10.0,SSW,11.5,-,N/A,,Clear,210,2013-05-17 10:56:00
5:16 AM,53.6,46.4,77,29.91,10.0,WSW,5.8,-,N/A,,Clear,250,2013-05-17 11:16:00
5:36 AM,55.4,48.2,77,29.91,10.0,SW,10.4,-,N/A,,Clear,230,2013-05-17 11:36:00
6:16 AM,59.0,46.4,63,29.92,10.0,SW,9.2,-,N/A,,Clear,230,2013-05-17 12:16:00
6:36 AM,59.0,48.2,67,29.93,10.0,WSW,8.1,-,N/A,,Clear,240,2013-05-17 12:36:00
6:55 AM,59.0,46.4,63,29.93,10.0,WSW,8.1,-,N/A,,Clear,240,2013-05-17 12:55:00
7:16 AM,60.8,46.4,59,29.93,10.0,SW,10.4,-,N/A,,Clear,230,2013-05-17 13:16:00
7:26 AM,62.6,46.4,55,29.93,10.0,SW,11.5,-,N/A,,Clear,230,2013-05-17 13:26:00
7:47 AM,64.4,46.4,52,29.94,50.0,SW,12.7,-,N/A,,Scattered Clouds,220,2013-05-17 13:47:00
8:47 AM,69.8,46.4,43,29.93,50.0,WSW,9.2,-,N/A,,Scattered Clouds,240,2013-05-17 14:47:00
9:55 AM,78.8,37.4,23,29.92,50.0,SW,10.4,-,N/A,,Partly Cloudy,230,2013-05-17 15:55:00
10:50 AM,82.4,28.4,14,29.92,50.0,SW,15.0,-,N/A,,Partly Cloudy,230,2013-05-17 16:50:00
11:52 AM,82.4,26.6,13,29.91,50.0,SW,9.2,-,N/A,,Partly Cloudy,220,2013-05-17 17:52:00
1:49 PM,84.2,28.4,13,29.87,50.0,SSE,8.1,-,N/A,,Scattered Clouds,150,2013-05-17 19:49:00
2:50 PM,86.0,37.4,18,29.85,50.0,East,13.8,24.2,N/A,,Scattered Clouds,90,2013-05-17 20:50:00
4:50 PM,82.4,35.6,19,29.80,50.0,East,9.2,16.1,N/A,,Mostly Cloudy,100,2013-05-17 22:50:00
5:52 PM,82.4,28.4,14,29.78,50.0,SSE,12.7,19.6,N/A,,Mostly Cloudy,160,2013-05-17 23:52:00
6:47 PM,80.6,28.4,15,29.78,50.0,South,9.2,-,N/A,,Mostly Cloudy,170,2013-05-18 00:47:00
7:50 PM,77.0,23.0,13,29.80,50.0,South,16.1,-,N/A,,Mostly Cloudy,180,2013-05-18 01:50:00
9:17 PM,62.6,30.2,30,29.82,10.0,South,9.2,-,N/A,,Clear,190,2013-05-18 03:17:00
9:37 PM,62.6,30.2,30,29.82,10.0,South,10.4,-,N/A,,Clear,190,2013-05-18 03:37:00
9:56 PM,62.6,28.4,27,29.84,10.0,West,13.8,21.9,N/A,,Clear,260,2013-05-18 03:56:00
10:16 PM,68.0,21.2,17,29.85,10.0,SW,11.5,-,N/A,,Clear,230,2013-05-18 04:16:00
10:36 PM,66.2,23.0,19,29.85,10.0,SW,5.8,-,N/A,,Clear,230,2013-05-18 04:36:00
10:56 PM,62.6,24.8,24,29.85,10.0,West,6.9,-,N/A,,Clear,270,2013-05-18 04:56:00
11:16 PM,66.2,21.2,18,29.86,10.0,WSW,6.9,-,N/A,,Clear,250,2013-05-18 05:16:00
11:35 PM,64.4,23.0,21,29.86,10.0,West,4.6,-,N/A,,Clear,260,2013-05-18 05:35:00
11:56 PM,62.6,26.6,26,29.87,10.0,SW,8.1,-,N/A,,Clear,230,2013-05-18 05:56:00